Time;durP1;ratioP1;P1;durP2;ratioP2;P2;SDS_P1;SDS_P2;PMS_P1;PMS_P2;Temp;Humidity;BMP_temperature;BMP_pressure;BME280_temperature;BME280_humidity;BME280_pressure;Samples;Min_cycle;Max_cycle;Signal;HPM_P1;HPM_P2
2022/10/19 00:00:18;;;;;;;;;11.33;11.00;;;;;19.68;88.27;-16979.25;4992820;27;45707;-74
2022/10/19 00:02:43;;;;;;;;;10.00;8.67;;;;;19.66;88.68;-16871.31;4981142;27;45448;-74
2022/10/19 00:05:09;;;;;;;;;9.00;9.00;;;;;19.68;88.42;-16869.13;4992998;28;46042;-75
2022/10/19 00:07:34;;;;;;;;;9.67;8.67;;;;;19.67;88.28;-16860.91;4985836;27;45349;-74
2022/10/19 00:09:59;;;;;;;;;11.00;9.33;;;;;19.68;88.28;-16690.53;4993786;27;45708;-74
2022/10/19 00:12:25;;;;;;;;;7.67;7.00;;;;;19.64;88.24;-16797.28;4994908;27;45399;-74
2022/10/19 00:14:50;;;;;;;;;7.00;7.00;;;;;19.66;88.20;-16627.22;4976552;27;46123;-74
2022/10/19 00:17:15;;;;;;;;;8.67;8.00;;;;;19.66;88.22;-16666.47;4994306;27;45454;-75
2022/10/19 00:19:41;;;;;;;;;7.00;7.00;;;;;19.45;87.59;-16583.31;4986235;28;45320;-74
2022/10/19 00:22:06;;;;;;;;;6.00;6.00;;;;;19.65;88.25;-16466.78;4989097;28;45658;-75
2022/10/19 00:24:31;;;;;;;;;8.33;6.67;;;;;19.65;87.99;-16579.66;4986473;28;46127;-75
2022/10/19 00:26:57;;;;;;;;;7.00;5.33;;;;;19.58;88.11;-16518.00;4992863;27;45284;-74
2022/10/19 00:29:22;;;;;;;;;10.33;7.00;;;;;19.61;87.70;-16468.66;4994016;28;45543;-74
2022/10/19 00:31:51;;;;;;;;;8.33;7.67;;;;;19.46;87.80;-16646.63;4990587;27;45491;-74
2022/10/19 00:34:16;;;;;;;;;9.00;8.00;;;;;19.53;87.46;-16548.41;4964720;28;45475;-74
2022/10/19 00:36:42;;;;;;;;;5.00;5.00;;;;;19.44;87.94;-16465.13;4991550;27;45701;-74
2022/10/19 00:39:11;;;;;;;;;9.67;8.33;;;;;19.39;88.18;-16975.66;4987230;27;45745;-74
2022/10/19 00:41:37;;;;;;;;;5.67;5.67;;;;;19.46;88.14;-16302.88;4992341;28;45568;-74
2022/10/19 00:44:02;;;;;;;;;8.33;8.33;;;;;19.50;87.68;-16545.03;4986798;28;47397;-74
2022/10/19 00:46:31;;;;;;;;;10.00;8.33;;;;;19.41;87.86;-16569.44;4982337;28;45737;-74
2022/10/19 00:49:21;;;;;;;;;7.33;6.67;;;;;19.49;87.74;-16424.22;4993491;27;45374;-74
2022/10/19 00:51:49;;;;;;;;;7.67;7.67;;;;;19.30;87.23;-16588.06;4991338;28;45442;-74
2022/10/19 00:54:17;;;;;;;;;7.00;7.00;;;;;19.40;87.64;-16403.94;4980677;27;46062;-74
2022/10/19 00:56:45;;;;;;;;;10.00;8.00;;;;;19.48;87.85;-16458.13;4976452;28;45543;-74
2022/10/19 00:59:14;;;;;;;;;6.33;6.33;;;;;19.40;88.10;-16432.91;4987812;27;45542;-74
2022/10/19 01:01:40;;;;;;;;;8.00;7.00;;;;;19.42;87.68;-16456.72;4977605;27;45425;-72
2022/10/19 01:04:06;;;;;;;;;4.67;4.67;;;;;19.15;87.63;-16338.38;4985168;27;46338;-72
2022/10/19 01:06:32;;;;;;;;;7.00;7.00;;;;;19.44;87.41;-16273.59;4993490;28;45443;-72
2022/10/19 01:08:58;;;;;;;;;7.00;6.00;;;;;19.46;87.36;-16489.19;4991186;27;45765;-72
2022/10/19 01:12:05;;;;;;;;;8.00;7.00;;;;;19.43;87.68;-16483.28;4989032;28;45419;-72
2022/10/19 01:15:08;;;;;;;;;4.00;4.00;;;;;19.43;87.36;-16475.31;5006376;28;46391;-72
2022/10/19 01:17:55;;;;;;;;;8.67;4.67;;;;;19.38;87.46;-16429.84;4972506;28;45619;-72
2022/10/19 01:20:35;;;;;;;;;6.00;6.00;;;;;19.37;87.75;-16427.00;4964954;28;45399;-72
2022/10/19 01:23:24;;;;;;;;;4.67;4.67;;;;;19.36;87.69;-16279.78;4973261;28;45522;-72
2022/10/19 01:26:23;;;;;;;;;4.67;4.67;;;;;19.35;87.48;-16455.34;4973186;28;46305;-72
2022/10/19 01:29:16;;;;;;;;;6.67;4.67;;;;;19.33;88.00;-16470.75;4973394;28;45480;-72
2022/10/19 01:32:05;;;;;;;;;5.33;4.00;;;;;19.21;87.74;-16418.34;4974117;28;45568;-72
2022/10/19 01:34:48;;;;;;;;;5.00;5.00;;;;;19.31;87.22;-16580.50;4973711;28;45373;-72
2022/10/19 01:37:14;;;;;;;;;3.00;3.00;;;;;19.32;87.39;-16544.00;4969956;28;46458;-72
2022/10/19 01:40:04;;;;;;;;;4.33;4.33;;;;;19.32;87.23;-16614.72;4970724;28;45452;-72
2022/10/19 01:42:45;;;;;;;;;3.67;3.33;;;;;19.32;87.33;-16646.31;4975524;28;45354;-72
2022/10/19 01:45:18;;;;;;;;;5.33;4.00;;;;;19.31;87.41;-16590.88;4976772;28;45550;-72
2022/10/19 01:47:55;;;;;;;;;3.00;3.00;;;;;19.31;87.16;-16646.09;4977331;28;46601;-72
2022/10/19 01:50:57;;;;;;;;;4.00;4.00;;;;;19.27;87.51;-16519.31;4975229;28;45472;-72
2022/10/19 01:53:25;;;;;;;;;3.00;3.00;;;;;19.27;87.10;-16461.50;5031926;28;45655;-72
2022/10/19 01:55:54;;;;;;;;;6.00;4.33;;;;;19.25;86.90;-16589.59;4996276;27;45509;-72
2022/10/19 01:58:26;;;;;;;;;3.67;3.33;;;;;19.25;87.32;-16482.06;4993317;27;45543;-71
2022/10/19 02:00:54;;;;;;;;;5.00;3.67;;;;;19.21;87.19;-16494.31;4982381;27;45515;-75
2022/10/19 02:03:21;;;;;;;;;4.00;3.00;;;;;19.21;87.45;-16554.75;4977965;27;45452;-75
2022/10/19 02:05:48;;;;;;;;;4.00;4.00;;;;;19.21;87.30;-16426.22;4995927;27;45383;-75
2022/10/19 02:08:19;;;;;;;;;4.33;3.00;;;;;19.22;87.13;-16623.03;4994169;27;46376;-74
2022/10/19 02:10:46;;;;;;;;;3.00;3.00;;;;;19.18;86.93;-16604.03;4994545;27;45269;-75
2022/10/19 02:13:15;;;;;;;;;4.33;3.33;;;;;19.18;87.09;-16611.78;4985949;27;45433;-73
2022/10/19 02:15:46;;;;;;;;;5.33;3.33;;;;;19.14;87.30;-16634.53;4983744;27;45473;-75
2022/10/19 02:18:16;;;;;;;;;4.33;4.33;;;;;19.03;87.33;-16582.31;4991089;27;47651;-74
2022/10/19 02:20:42;;;;;;;;;4.67;4.67;;;;;19.17;87.37;-16656.28;4994536;27;45344;-74
2022/10/19 02:23:08;;;;;;;;;5.33;2.33;;;;;19.08;87.44;-16635.84;4993531;27;45353;-73
2022/10/19 02:25:34;;;;;;;;;4.00;4.00;;;;;19.04;86.92;-16566.81;4994185;27;45524;-74
2022/10/19 02:28:02;;;;;;;;;5.00;4.00;;;;;19.15;87.12;-16600.66;4993517;27;46396;-74
2022/10/19 02:30:27;;;;;;;;;4.00;3.00;;;;;19.13;87.43;-16547.78;4994775;27;45502;-74
2022/10/19 02:32:53;;;;;;;;;4.33;4.33;;;;;19.13;86.95;-16639.56;4994417;28;45574;-74
2022/10/19 02:35:19;;;;;;;;;4.00;4.00;;;;;19.11;87.49;-16610.38;4988302;27;45512;-74
2022/10/19 02:37:44;;;;;;;;;5.00;3.67;;;;;19.10;86.98;-16654.75;4994219;27;47003;-74
2022/10/19 02:40:11;;;;;;;;;9.67;4.00;;;;;19.10;86.97;-16625.91;4994108;27;45842;-74
2022/10/19 02:42:44;;;;;;;;;4.00;4.00;;;;;18.95;86.87;-16638.50;4982335;27;45534;-73
2022/10/19 02:45:21;;;;;;;;;3.00;3.00;;;;;18.86;87.00;-16631.19;4984098;27;45404;-73
2022/10/19 02:47:51;;;;;;;;;4.33;4.00;;;;;19.06;87.03;-16486.06;4989789;27;46269;-74
2022/10/19 02:50:18;;;;;;;;;1.67;1.67;;;;;19.06;87.38;-16488.69;4991226;27;45299;-74
2022/10/19 02:52:43;;;;;;;;;3.00;3.00;;;;;19.04;87.26;-16336.16;4993463;27;45469;-74
2022/10/19 02:55:09;;;;;;;;;3.33;3.33;;;;;19.03;87.78;-16401.41;4992737;27;45418;-73
2022/10/19 02:57:35;;;;;;;;;4.00;4.00;;;;;19.04;87.53;-16448.81;4994173;27;46206;-74
2022/10/19 03:00:02;;;;;;;;;4.67;2.67;;;;;19.02;87.79;-16456.25;4989881;27;45512;-73
2022/10/19 03:02:27;;;;;;;;;4.00;4.00;;;;;19.03;87.31;-16640.00;4988321;27;45436;-74
2022/10/19 03:04:53;;;;;;;;;2.00;2.00;;;;;19.04;87.16;-16645.47;5026489;28;45537;-73
2022/10/19 03:07:20;;;;;;;;;3.00;3.00;;;;;18.44;87.23;-16619.78;4991791;27;46269;-74
2022/10/19 03:09:45;;;;;;;;;2.00;2.00;;;;;19.03;87.39;-16592.91;4979485;27;45495;-75
2022/10/19 03:12:12;;;;;;;;;6.00;3.67;;;;;19.00;87.13;-16733.75;4981046;28;45368;-74
2022/10/19 03:14:37;;;;;;;;;3.00;3.00;;;;;19.03;86.81;-16726.53;4984941;27;45370;-74
2022/10/19 03:17:03;;;;;;;;;2.67;2.67;;;;;18.96;87.04;-16670.06;4994538;27;45417;-73
2022/10/19 03:19:29;;;;;;;;;4.67;3.00;;;;;19.02;86.95;-16634.56;4972986;27;45665;-74
2022/10/19 03:21:54;;;;;;;;;3.67;3.00;;;;;19.02;87.22;-16734.28;4995067;28;45404;-74
2022/10/19 03:24:20;;;;;;;;;0.67;0.67;;;;;19.00;86.70;-16662.97;4977441;28;45549;-73
2022/10/19 03:26:46;;;;;;;;;3.67;3.67;;;;;19.03;87.27;-16118.28;4994730;27;47000;-76
2022/10/19 03:29:11;;;;;;;;;4.33;4.00;;;;;18.98;87.22;-16198.66;4994843;27;45449;-76
2022/10/19 03:31:36;;;;;;;;;4.00;4.00;;;;;19.01;87.13;-16794.38;4992377;27;45475;-75
2022/10/19 03:34:02;;;;;;;;;4.00;4.00;;;;;19.03;86.64;-16640.00;4995258;28;45464;-75
2022/10/19 03:36:30;;;;;;;;;4.67;3.00;;;;;19.03;87.12;-16600.69;5001069;27;45491;-76
2022/10/19 03:38:58;;;;;;;;;3.33;3.33;;;;;19.03;86.98;-16417.13;4994731;27;45476;-75
2022/10/19 03:41:26;;;;;;;;;4.00;4.00;;;;;18.98;86.67;-16605.06;4994594;27;45423;-75
2022/10/19 03:43:52;;;;;;;;;3.33;3.33;;;;;19.01;87.35;-16655.31;4994966;27;45607;-76
2022/10/19 03:46:18;;;;;;;;;4.00;4.00;;;;;19.01;87.16;-16482.25;4993334;28;46208;-75
2022/10/19 03:48:43;;;;;;;;;3.00;3.00;;;;;18.96;86.93;-16397.50;4993363;27;45247;-76
2022/10/19 03:51:12;;;;;;;;;4.00;4.00;;;;;19.00;87.43;-16434.84;4994766;27;45235;-76
2022/10/19 03:53:39;;;;;;;;;3.00;3.00;;;;;18.98;87.42;-16450.38;4993517;27;45423;-76
2022/10/19 03:56:13;;;;;;;;;3.00;3.00;;;;;18.98;86.89;-16447.63;4994250;27;46619;-76
2022/10/19 03:58:40;;;;;;;;;4.00;4.00;;;;;18.80;87.72;-16307.59;4994159;28;45331;-76
2022/10/19 04:01:09;;;;;;;;;3.33;3.00;;;;;18.95;87.27;-16321.25;4990138;28;45467;-74
2022/10/19 04:03:35;;;;;;;;;2.67;2.67;;;;;18.95;87.60;-16276.69;4992654;28;45569;-76
2022/10/19 04:06:06;;;;;;;;;3.33;3.33;;;;;18.93;87.88;-16150.41;4991223;27;45411;-75
2022/10/19 04:08:32;;;;;;;;;3.00;3.00;;;;;18.85;87.36;-16193.28;4981663;28;45598;-75
2022/10/19 04:11:20;;;;;;;;;5.00;4.00;;;;;18.89;87.33;-16202.00;4963882;27;45491;-76
2022/10/19 04:13:53;;;;;;;;;3.00;3.00;;;;;18.87;87.95;-16128.06;4993343;28;45616;-76
2022/10/19 04:16:20;;;;;;;;;4.33;4.00;;;;;18.87;87.64;-16143.91;4988831;27;46097;-74
2022/10/19 04:18:46;;;;;;;;;5.33;4.00;;;;;18.86;88.20;-16117.38;4988862;27;45286;-74
2022/10/19 04:21:32;;;;;;;;;3.00;3.00;;;;;18.84;87.75;-16059.28;4993112;28;45295;-75
2022/10/19 04:24:12;;;;;;;;;3.00;3.00;;;;;18.84;88.30;-16069.88;4987756;27;45378;-75
2022/10/19 04:26:41;;;;;;;;;3.00;3.00;;;;;18.86;87.86;-16138.34;4988981;28;46377;-73
2022/10/19 04:29:07;;;;;;;;;5.00;5.00;;;;;18.83;88.28;-15967.41;4991103;28;45286;-79
2022/10/19 04:31:33;;;;;;;;;3.67;3.67;;;;;18.82;88.08;-16001.28;5000512;28;45435;-78
2022/10/19 04:33:58;;;;;;;;;4.67;4.00;;;;;18.73;87.94;-16274.75;4991559;27;45432;-76
2022/10/19 04:36:23;;;;;;;;;5.00;4.00;;;;;18.80;87.66;-16249.81;5007694;27;46133;-76
2022/10/19 04:38:49;;;;;;;;;4.33;4.33;;;;;18.83;88.36;-16174.53;4994484;27;45559;-76
2022/10/19 04:41:18;;;;;;;;;4.67;4.67;;;;;18.84;87.71;-16290.09;4975141;28;45772;-76
2022/10/19 04:43:44;;;;;;;;;5.00;4.67;;;;;18.81;87.71;-16252.75;4990804;27;45371;-75
2022/10/19 04:46:13;;;;;;;;;4.00;4.00;;;;;18.85;87.98;-16285.06;4973106;28;47111;-75
2022/10/19 04:48:40;;;;;;;;;3.67;3.67;;;;;18.85;87.84;-16395.16;4990579;28;45491;-75
2022/10/19 04:51:06;;;;;;;;;4.67;4.67;;;;;18.83;87.57;-16268.91;4983395;28;45419;-74
2022/10/19 04:53:32;;;;;;;;;6.33;5.00;;;;;18.83;88.16;-16308.13;4989796;27;45517;-74
2022/10/19 04:55:58;;;;;;;;;5.00;4.00;;;;;18.83;88.10;-16331.72;4981819;27;46394;-75
2022/10/19 04:58:23;;;;;;;;;6.00;4.00;;;;;18.82;87.49;-16407.63;4994054;27;45500;-74
2022/10/19 05:00:50;;;;;;;;;5.33;5.33;;;;;18.80;88.06;-16278.75;4993898;27;46431;-73
2022/10/19 05:03:16;;;;;;;;;5.00;4.67;;;;;18.80;87.69;-16137.19;4977721;27;46692;-73
2022/10/19 05:05:41;;;;;;;;;4.00;4.00;;;;;18.68;87.99;-16297.28;4987214;27;46255;-72
2022/10/19 05:08:08;;;;;;;;;5.67;4.00;;;;;18.79;87.63;-16294.16;4980609;28;45357;-72
2022/10/19 05:10:33;;;;;;;;;7.00;5.00;;;;;18.78;88.15;-16225.91;4989138;28;45672;-72
2022/10/19 05:13:01;;;;;;;;;5.00;5.00;;;;;18.79;88.05;-16270.56;4983224;28;45507;-74
2022/10/19 05:15:27;;;;;;;;;9.00;6.33;;;;;18.78;88.10;-16304.53;4985304;28;46300;-81
2022/10/19 05:17:53;;;;;;;;;4.33;4.33;;;;;18.75;88.11;-16303.91;4994838;27;45608;-84
2022/10/19 05:20:18;;;;;;;;;5.00;4.00;;;;;18.73;87.81;-16138.47;5004438;27;45460;-82
2022/10/19 05:22:44;;;;;;;;;5.00;5.00;;;;;18.73;88.15;-16238.06;4989461;27;45559;-82
2022/10/19 05:25:09;;;;;;;;;5.67;4.67;;;;;18.72;88.39;-16216.88;4976123;27;49021;-81
2022/10/19 05:27:34;;;;;;;;;5.33;3.33;;;;;18.67;87.85;-16113.50;4981681;27;45219;-83
2022/10/19 05:29:59;;;;;;;;;6.67;4.33;;;;;18.66;88.25;-16144.75;4991060;27;45432;-76
2022/10/19 05:32:26;;;;;;;;;5.00;5.00;;;;;18.58;88.49;-16061.94;4990703;27;45447;-79
2022/10/19 05:34:51;;;;;;;;;3.67;3.67;;;;;18.68;88.17;-16179.25;4993288;27;45715;-74
2022/10/19 05:37:17;;;;;;;;;4.00;4.00;;;;;18.70;88.30;-16106.28;5015636;27;45605;-84
2022/10/19 05:39:42;;;;;;;;;5.00;5.00;;;;;18.69;88.34;-16247.59;4999221;27;45464;-83
2022/10/19 05:42:07;;;;;;;;;4.00;4.00;;;;;18.69;87.94;-16189.94;4986076;28;45491;-83
2022/10/19 05:44:33;;;;;;;;;6.67;6.00;;;;;18.70;87.93;-16205.88;4985338;27;45890;-83
2022/10/19 05:46:59;;;;;;;;;5.00;4.00;;;;;18.69;88.25;-16281.78;4978899;28;45317;-83
2022/10/19 05:49:24;;;;;;;;;3.00;3.00;;;;;18.67;87.73;-16283.88;4983492;27;45326;-84
2022/10/19 05:51:50;;;;;;;;;5.00;5.00;;;;;18.67;88.30;-16202.63;4988674;27;45472;-80
2022/10/19 05:54:16;;;;;;;;;5.00;5.00;;;;;18.69;88.38;-16268.66;4982289;27;45539;-80
2022/10/19 05:56:42;;;;;;;;;6.00;6.00;;;;;18.69;87.43;-16423.19;4984822;27;45317;-80
2022/10/19 05:59:12;;;;;;;;;6.00;6.00;;;;;18.66;87.59;-16485.44;4982072;27;45330;-80
2022/10/19 06:01:37;;;;;;;;;7.67;6.33;;;;;18.70;87.82;-16606.84;4979109;27;45402;-80
2022/10/19 06:04:03;;;;;;;;;6.00;6.00;;;;;18.48;87.52;-16437.16;4988747;27;45296;-80
2022/10/19 06:06:29;;;;;;;;;6.33;6.00;;;;;18.68;87.50;-16575.09;4995851;27;45342;-80
2022/10/19 06:08:57;;;;;;;;;5.67;5.67;;;;;18.67;87.88;-16506.72;4996170;27;45488;-80
2022/10/19 06:11:27;;;;;;;;;9.00;6.67;;;;;18.64;87.38;-16440.56;4996330;27;45434;-80
2022/10/19 06:13:55;;;;;;;;;6.00;6.00;;;;;18.64;87.62;-16511.31;4978386;28;46911;-80
2022/10/19 06:16:22;;;;;;;;;4.00;4.00;;;;;18.64;88.05;-16453.66;4995837;27;45421;-80
2022/10/19 06:18:48;;;;;;;;;6.33;5.33;;;;;18.64;87.75;-16563.63;4995972;27;45329;-80
2022/10/19 06:21:16;;;;;;;;;6.00;6.00;;;;;18.49;88.25;-16788.41;4996212;27;45259;-80
2022/10/19 06:23:41;;;;;;;;;10.67;7.33;;;;;18.41;88.77;-16310.00;4987882;27;46420;-80
2022/10/19 06:26:10;;;;;;;;;11.00;8.67;;;;;18.42;88.61;-16302.25;4968690;28;45481;-80
2022/10/19 06:28:38;;;;;;;;;10.00;7.67;;;;;18.42;88.55;-16383.56;4982470;27;45413;-80
2022/10/19 06:31:04;;;;;;;;;7.67;6.00;;;;;18.23;89.10;-16458.19;4996192;27;45424;-80
2022/10/19 06:33:30;;;;;;;;;7.67;7.67;;;;;18.43;88.71;-16276.38;4995268;27;47372;-80
2022/10/19 06:35:55;;;;;;;;;6.00;6.00;;;;;18.43;89.02;-16286.84;4978334;28;45448;-80
2022/10/19 06:38:21;;;;;;;;;8.50;7.50;;;;;18.54;88.73;-15778.19;4995439;27;45434;-80
2022/10/19 06:40:48;;;;;;;;;9.00;6.00;;;;;18.62;88.54;-16272.44;4996052;27;45405;-80
2022/10/19 06:43:13;;;;;;;;;4.67;4.67;;;;;18.65;88.21;-16598.00;4995443;27;47316;-80
2022/10/19 06:45:39;;;;;;;;;7.00;5.33;;;;;18.67;88.09;-16577.38;4995397;27;45536;-80
2022/10/19 06:48:05;;;;;;;;;7.00;7.00;;;;;18.68;88.03;-16538.28;4995543;27;45406;-80
2022/10/19 06:50:31;;;;;;;;;7.00;7.00;;;;;18.70;87.84;-16638.31;4995667;27;45380;-80
2022/10/19 06:52:57;;;;;;;;;7.67;6.33;;;;;18.72;87.72;-16633.59;4995457;28;46113;-80
2022/10/19 06:55:23;;;;;;;;;6.67;6.67;;;;;18.71;87.48;-16583.59;4995648;27;45369;-80
2022/10/19 06:57:48;;;;;;;;;6.00;6.00;;;;;18.74;87.85;-16552.69;4995664;27;45420;-80
2022/10/19 07:00:14;;;;;;;;;8.33;7.00;;;;;18.75;87.84;-16602.69;4995967;27;45278;-80
2022/10/19 07:02:39;;;;;;;;;10.00;7.00;;;;;18.75;87.38;-16534.66;4992469;28;47481;-80
2022/10/19 07:05:05;;;;;;;;;5.67;5.67;;;;;18.69;87.86;-16475.72;4995199;27;45345;-80
2022/10/19 07:07:31;;;;;;;;;9.33;8.33;;;;;18.75;87.98;-16445.53;4993428;28;45263;-80
2022/10/19 07:09:56;;;;;;;;;9.33;6.00;;;;;18.79;88.16;-16315.13;4982701;27;45282;-80
2022/10/19 07:12:21;;;;;;;;;9.67;7.33;;;;;18.80;87.40;-16488.34;4995228;27;46199;-80
2022/10/19 07:14:47;;;;;;;;;6.67;6.00;;;;;18.79;87.47;-16315.25;4995070;27;45485;-80
2022/10/19 07:17:12;;;;;;;;;8.33;7.67;;;;;18.83;87.32;-16279.28;4995092;27;45231;-80
2022/10/19 07:19:38;;;;;;;;;9.33;9.33;;;;;18.86;87.47;-16319.34;4994897;27;45262;-80
2022/10/19 07:22:03;;;;;;;;;11.00;9.33;;;;;18.89;87.75;-16296.38;4994958;27;45941;-80
2022/10/19 07:24:28;;;;;;;;;8.67;7.33;;;;;18.92;87.85;-16446.34;4981169;27;45446;-80
2022/10/19 07:26:54;;;;;;;;;10.00;9.00;;;;;18.94;87.74;-16389.09;4995327;27;46022;-80
2022/10/19 07:29:20;;;;;;;;;12.00;8.33;;;;;18.96;87.24;-16421.09;4995703;27;45482;-80
2022/10/19 07:31:45;;;;;;;;;8.00;7.67;;;;;18.92;87.52;-16543.47;4995997;27;46987;-80
2022/10/19 07:34:12;;;;;;;;;9.33;8.33;;;;;18.88;87.74;-16663.19;5032432;27;45450;-81
2022/10/19 07:36:43;;;;;;;;;9.33;9.33;;;;;19.04;87.48;-16621.97;4995511;27;45468;-80
2022/10/19 07:39:09;;;;;;;;;10.67;8.67;;;;;19.09;87.13;-16623.06;4995779;27;45567;-80
2022/10/19 07:41:35;;;;;;;;;10.33;8.33;;;;;19.13;86.94;-16621.31;4994866;27;47094;-80
2022/10/19 07:44:01;;;;;;;;;10.67;9.00;;;;;19.15;87.18;-16860.28;4983066;27;45356;-79
2022/10/19 07:46:32;;;;;;;;;11.00;8.33;;;;;19.16;86.96;-16960.16;4996084;27;45448;-80
2022/10/19 07:48:58;;;;;;;;;11.33;11.00;;;;;19.07;86.81;-16889.97;4995542;27;45420;-80
2022/10/19 07:51:23;;;;;;;;;9.00;8.33;;;;;19.30;86.36;-16897.69;4996051;28;45285;-80
2022/10/19 07:53:49;;;;;;;;;6.00;4.33;;;;;19.36;86.56;-17077.41;4995711;27;45295;-80
2022/10/19 07:56:20;;;;;;;;;8.67;8.67;;;;;19.39;86.51;-17322.03;4996024;27;45385;-81
2022/10/19 07:58:46;;;;;;;;;10.00;10.00;;;;;19.43;86.04;-17136.56;4995538;27;45320;-81
2022/10/19 08:01:14;;;;;;;;;13.33;12.67;;;;;19.46;85.61;-17559.59;4977508;28;47026;-74
2022/10/19 08:03:40;;;;;;;;;9.33;9.33;;;;;19.51;85.92;-17321.91;4993100;27;45467;-74
2022/10/19 08:06:08;;;;;;;;;7.67;7.67;;;;;19.55;85.72;-17438.38;4994381;27;45432;-72
2022/10/19 08:08:34;;;;;;;;;11.00;8.67;;;;;19.63;86.00;-17563.31;4995217;27;45360;-74
2022/10/19 08:11:14;;;;;;;;;13.33;12.33;;;;;19.64;85.28;-17660.63;4979126;28;47449;-74
2022/10/19 08:13:40;;;;;;;;;9.67;9.67;;;;;19.76;85.91;-17513.94;4994472;28;45507;-74
2022/10/19 08:16:20;;;;;;;;;11.67;10.00;;;;;19.82;85.38;-17759.31;4994494;27;45401;-74
2022/10/19 08:18:46;;;;;;;;;8.00;8.00;;;;;19.90;85.24;-17992.06;4993142;27;45537;-74
2022/10/19 08:21:11;;;;;;;;;11.00;11.00;;;;;19.93;85.04;-18483.59;4980408;27;45451;-74
2022/10/19 08:23:36;;;;;;;;;9.00;9.00;;;;;19.98;84.29;-18516.44;4994203;28;45334;-75
2022/10/19 08:26:02;;;;;;;;;8.33;8.33;;;;;20.00;84.38;-18661.31;4976767;28;45460;-75
2022/10/19 08:28:28;;;;;;;;;11.67;9.67;;;;;20.10;84.32;-19010.16;4977061;28;45389;-74
2022/10/19 08:30:56;;;;;;;;;11.67;11.67;;;;;20.11;84.09;-19220.28;4994178;27;45313;-75
2022/10/19 08:33:22;;;;;;;;;10.67;9.67;;;;;20.18;83.75;-19274.72;4993868;27;45428;-75
2022/10/19 08:35:47;;;;;;;;;8.67;8.67;;;;;20.10;84.11;-19369.63;4994098;27;45389;-75
2022/10/19 08:38:13;;;;;;;;;11.00;9.33;;;;;20.29;83.91;-19539.84;4994356;27;45350;-75
2022/10/19 08:40:38;;;;;;;;;9.33;9.33;;;;;20.24;83.09;-19704.19;4976547;28;46971;-75
2022/10/19 08:43:09;;;;;;;;;12.00;10.67;;;;;20.35;83.21;-19750.81;4993800;27;45349;-74
2022/10/19 08:45:49;;;;;;;;;11.33;10.33;;;;;20.33;82.83;-19750.28;4994051;28;45425;-75
2022/10/19 08:48:24;;;;;;;;;10.00;10.00;;;;;20.37;83.22;-19751.34;4994529;28;45423;-74
2022/10/19 08:50:50;;;;;;;;;10.33;10.00;;;;;20.37;82.55;-19751.47;4976424;27;46582;-74
2022/10/19 08:53:39;;;;;;;;;10.00;10.00;;;;;20.37;82.41;-19751.34;4990455;27;45774;-74
2022/10/19 08:56:19;;;;;;;;;9.33;9.33;;;;;20.42;82.88;-19752.81;4985497;27;45637;-75
2022/10/19 08:58:45;;;;;;;;;8.67;8.00;;;;;20.46;82.76;-19753.75;4996921;27;45490;-74
2022/10/19 09:01:25;;;;;;;;;11.00;9.67;;;;;20.47;82.03;-19753.88;4996616;27;45325;-73
2022/10/19 09:04:13;;;;;;;;;10.67;8.67;;;;;20.49;82.03;-19754.41;4995433;27;45495;-73
2022/10/19 09:06:59;;;;;;;;;14.67;8.67;;;;;20.54;82.54;-19755.88;4997085;27;45432;-73
2022/10/19 09:09:27;;;;;;;;;11.00;8.00;;;;;20.62;81.58;-19758.00;4996978;27;45420;-74
2022/10/19 09:11:57;;;;;;;;;7.33;7.33;;;;;20.75;82.04;-19761.34;4996600;27;46222;-74
2022/10/19 09:14:31;;;;;;;;;10.67;10.33;;;;;20.91;81.57;-19765.47;4996561;27;45498;-74
2022/10/19 09:17:03;;;;;;;;;13.00;9.00;;;;;21.01;81.33;-19768.00;4996499;27;45560;-74
2022/10/19 09:19:30;;;;;;;;;14.33;10.33;;;;;21.14;80.84;-19771.47;4996844;27;45353;-74
2022/10/19 09:22:07;;;;;;;;;10.00;8.00;;;;;21.33;80.09;-19776.25;4996505;27;46197;-74
2022/10/19 09:24:42;;;;;;;;;12.00;9.00;;;;;21.47;79.65;-19780.13;4996183;27;45406;-73
2022/10/19 09:27:16;;;;;;;;;8.33;7.33;;;;;21.65;79.24;-19784.78;4996727;27;45454;-74
2022/10/19 09:29:48;;;;;;;;;9.67;8.00;;;;;22.08;77.88;-19795.97;4996437;27;45425;-73
2022/10/19 09:32:20;;;;;;;;;9.67;6.33;;;;;22.66;76.83;-19810.97;4996468;27;45451;-74
2022/10/19 09:34:50;;;;;;;;;7.00;7.00;;;;;23.49;73.97;-19832.50;4996148;27;45249;-73
2022/10/19 09:37:19;;;;;;;;;9.33;6.33;;;;;24.72;70.89;-19864.22;4995222;28;45482;-73
2022/10/19 09:39:44;;;;;;;;;6.33;6.00;;;;;25.58;66.79;-19886.47;4978902;28;45773;-74
2022/10/19 09:42:31;;;;;;;;;8.00;7.33;;;;;26.69;64.34;-19915.19;4996070;27;45945;-74
2022/10/19 09:45:10;;;;;;;;;8.33;6.67;;;;;27.61;61.25;-19938.81;4995959;27;45364;-73
2022/10/19 09:47:44;;;;;;;;;8.00;6.67;;;;;28.77;58.38;-19968.88;4988075;27;45467;-73
2022/10/19 09:50:41;;;;;;;;;5.25;5.25;;;;;29.88;55.80;-19997.34;4992297;27;45437;-73
2022/10/19 09:53:17;;;;;;;;;7.25;7.25;;;;;30.94;53.17;-20024.41;5003817;27;46015;-74
2022/10/19 09:55:46;;;;;;;;;5.50;5.50;;;;;31.23;51.20;-20032.03;4978832;28;45432;-73
2022/10/19 09:58:14;;;;;;;;;5.00;5.00;;;;;31.81;49.48;-20046.84;4996088;27;45362;-73
2022/10/19 10:00:42;;;;;;;;;5.75;5.75;;;;;32.22;48.14;-20057.22;4995898;27;45911;-84
2022/10/19 10:03:23;;;;;;;;;5.75;5.75;;;;;32.68;48.61;-20069.00;4979004;28;47514;-84
2022/10/19 10:05:49;;;;;;;;;7.50;6.50;;;;;33.77;46.21;-20096.91;4995896;27;45247;-84
2022/10/19 10:08:18;;;;;;;;;8.00;6.00;;;;;34.66;43.50;-20119.63;4996239;27;45403;-85
2022/10/19 10:10:47;;;;;;;;;6.25;6.25;;;;;35.51;41.92;-20141.41;4996351;27;45504;-83
2022/10/19 10:13:19;;;;;;;;;6.25;6.25;;;;;36.34;40.34;-20162.41;4990150;27;46217;-82
2022/10/19 10:15:51;;;;;;;;;5.50;5.50;;;;;36.83;38.62;-20174.91;4988488;27;45462;-83
2022/10/19 10:18:18;;;;;;;;;5.50;5.50;;;;;37.30;37.87;-20186.72;4995670;27;45449;-82
2022/10/19 10:21:15;;;;;;;;;6.50;6.50;;;;;37.85;36.47;-20200.63;4978497;28;45416;-83
2022/10/19 10:23:40;;;;;;;;;6.00;5.00;;;;;38.16;35.13;-19515.47;5002324;27;45417;-83
2022/10/19 10:26:18;;;;;;;;;4.25;4.25;;;;;36.53;36.44;-18786.31;4995760;27;45377;-83
2022/10/19 10:28:49;;;;;;;;;4.25;4.25;;;;;34.71;38.42;-18743.69;4995675;27;45449;-83
2022/10/19 10:31:21;;;;;;;;;5.75;4.25;;;;;33.55;40.97;-19403.00;4996350;27;45341;-83
2022/10/19 10:33:56;;;;;;;;;4.00;4.00;;;;;32.64;42.70;-20066.09;4995678;28;46384;-83
2022/10/19 10:36:26;;;;;;;;;5.00;5.00;;;;;32.13;43.12;-20053.13;4981596;27;45389;-81
2022/10/19 10:38:57;;;;;;;;;8.00;5.75;;;;;31.67;43.85;-20043.19;4995552;27;45277;-83
2022/10/19 10:41:23;;;;;;;;;7.75;6.50;;;;;31.46;44.35;-20037.81;4994784;28;45549;-82
2022/10/19 10:44:02;;;;;;;;;5.25;5.25;;;;;31.33;45.08;-20034.66;4995335;27;45371;-82
2022/10/19 10:46:33;;;;;;;;;5.25;5.25;;;;;31.38;44.22;-20035.72;4995343;27;45358;-83
2022/10/19 10:49:03;;;;;;;;;8.75;6.50;;;;;32.49;43.13;-20064.28;4995614;27;45470;-82
2022/10/19 10:51:28;;;;;;;;;5.75;5.25;;;;;33.72;41.66;-20095.59;4995800;27;45401;-83
2022/10/19 10:54:17;;;;;;;;;7.00;6.00;;;;;34.79;39.70;-20121.00;4995218;27;45662;-81
2022/10/19 10:56:53;;;;;;;;;4.75;4.75;;;;;35.11;38.38;-19785.16;4995282;27;45466;-80
2022/10/19 10:59:28;;;;;;;;;5.25;5.25;;;;;34.75;38.97;-19432.44;4995621;27;45397;-80
2022/10/19 11:02:09;;;;;;;;;5.50;5.25;;;;;35.25;38.11;-19100.59;4995936;27;45471;-80
2022/10/19 11:04:41;;;;;;;;;5.50;5.50;;;;;35.75;37.20;-18423.63;5042298;28;47746;-81
2022/10/19 11:07:19;;;;;;;;;5.75;5.75;;;;;35.84;36.10;-17736.72;4995458;27;45290;-81
2022/10/19 11:09:56;;;;;;;;;5.50;5.25;;;;;35.58;35.82;-16353.19;5021530;27;45503;-81
2022/10/19 11:12:32;;;;;;;;;4.75;4.75;;;;;34.71;37.54;-16336.16;5032511;27;45416;-81
2022/10/19 11:15:15;;;;;;;;;5.75;5.75;;;;;34.23;38.43;-16326.81;5053161;27;45303;-80
2022/10/19 11:17:57;;;;;;;;;6.00;6.00;;;;;34.09;38.36;-16667.59;4995028;27;45412;-80
2022/10/19 11:20:28;;;;;;;;;5.75;5.00;;;;;34.00;38.87;-16665.94;4994107;28;45385;-80
2022/10/19 11:23:46;;;;;;;;;6.50;5.25;;;;;34.72;37.73;-17024.41;4995335;27;45394;-80
2022/10/19 11:26:31;;;;;;;;;6.00;5.00;;;;;35.03;36.58;-16342.38;4981493;28;47499;-80
2022/10/19 11:29:17;;;;;;;;;5.00;5.00;;;;;35.17;36.14;-15656.50;4995641;28;45471;-81
2022/10/19 11:31:54;;;;;;;;;6.33;5.00;;;;;33.89;38.07;-15632.78;4995693;28;45516;-80
2022/10/19 11:34:52;;;;;;;;;5.50;5.50;;;;;33.37;38.92;-15623.16;4995907;28;45592;-81
2022/10/19 11:37:35;;;;;;;;;5.00;5.00;;;;;32.71;40.82;-16639.78;4995623;28;46151;-81